sensor_id;sensor_type;location;lat;lon;timestamp;P1;durP1;ratioP1;P2;durP2;ratioP2
17937;SDS011;16051;53.024;8.630;2023-02-25T00:01:17;6.13;;;2.00;;
17937;SDS011;16051;53.024;8.630;2023-02-25T00:05:29;5.77;;;1.50;;
17937;SDS011;16051;53.024;8.630;2023-02-25T00:09:32;7.43;;;1.90;;
17937;SDS011;16051;53.024;8.630;2023-02-25T00:13:35;4.00;;;1.80;;
17937;SDS011;16051;53.024;8.630;2023-02-25T00:17:41;7.03;;;2.00;;
17937;SDS011;16051;53.024;8.630;2023-02-25T00:21:43;5.47;;;1.67;;
17937;SDS011;16051;53.024;8.630;2023-02-25T00:25:46;6.67;;;1.67;;
17937;SDS011;16051;53.024;8.630;2023-02-25T00:29:50;9.60;;;2.10;;
17937;SDS011;16051;53.024;8.630;2023-02-25T00:33:54;9.20;;;2.03;;
17937;SDS011;16051;53.024;8.630;2023-02-25T00:38:07;7.80;;;1.90;;
17937;SDS011;16051;53.024;8.630;2023-02-25T00:42:10;6.83;;;1.50;;
17937;SDS011;16051;53.024;8.630;2023-02-25T00:46:14;9.47;;;1.67;;
17937;SDS011;16051;53.024;8.630;2023-02-25T00:50:19;6.83;;;2.10;;
17937;SDS011;16051;53.024;8.630;2023-02-25T00:54:21;5.23;;;1.43;;
17937;SDS011;16051;53.024;8.630;2023-02-25T00:58:23;7.63;;;1.73;;
17937;SDS011;16051;53.024;8.630;2023-02-25T01:02:25;12.37;;;2.60;;
17937;SDS011;16051;53.024;8.630;2023-02-25T01:06:30;4.90;;;1.57;;
17937;SDS011;16051;53.024;8.630;2023-02-25T01:10:43;9.13;;;1.67;;
17937;SDS011;16051;53.024;8.630;2023-02-25T01:14:46;10.80;;;1.57;;
17937;SDS011;16051;53.024;8.630;2023-02-25T01:18:50;2.10;;;1.30;;
17937;SDS011;16051;53.024;8.630;2023-02-25T01:22:54;5.73;;;1.83;;
17937;SDS011;16051;53.024;8.630;2023-02-25T01:26:57;4.57;;;1.73;;
17937;SDS011;16051;53.024;8.630;2023-02-25T01:31:02;6.97;;;1.80;;
17937;SDS011;16051;53.024;8.630;2023-02-25T01:35:07;6.83;;;2.07;;
17937;SDS011;16051;53.024;8.630;2023-02-25T01:39:11;7.53;;;2.23;;
17937;SDS011;16051;53.024;8.630;2023-02-25T01:43:15;8.33;;;1.70;;
17937;SDS011;16051;53.024;8.630;2023-02-25T01:47:18;7.53;;;1.83;;
17937;SDS011;16051;53.024;8.630;2023-02-25T01:51:21;7.90;;;2.07;;
17937;SDS011;16051;53.024;8.630;2023-02-25T01:55:30;8.30;;;2.10;;
17937;SDS011;16051;53.024;8.630;2023-02-25T01:59:37;6.20;;;1.40;;
17937;SDS011;16051;53.024;8.630;2023-02-25T02:03:41;9.63;;;2.30;;
17937;SDS011;16051;53.024;8.630;2023-02-25T02:07:44;7.97;;;2.00;;
17937;SDS011;16051;53.024;8.630;2023-02-25T02:11:49;7.90;;;1.80;;
17937;SDS011;16051;53.024;8.630;2023-02-25T02:15:54;7.50;;;1.60;;
17937;SDS011;16051;53.024;8.630;2023-02-25T02:20:11;5.03;;;1.23;;
17937;SDS011;16051;53.024;8.630;2023-02-25T02:29:18;5.50;;;1.80;;
17937;SDS011;16051;53.024;8.630;2023-02-25T02:33:53;5.33;;;1.37;;
17937;SDS011;16051;53.024;8.630;2023-02-25T02:42:51;6.33;;;1.80;;
17937;SDS011;16051;53.024;8.630;2023-02-25T02:47:08;3.27;;;1.20;;
17937;SDS011;16051;53.024;8.630;2023-02-25T02:51:18;5.80;;;1.80;;
17937;SDS011;16051;53.024;8.630;2023-02-25T03:00:07;6.43;;;1.57;;
17937;SDS011;16051;53.024;8.630;2023-02-25T03:04:17;5.47;;;1.60;;
17937;SDS011;16051;53.024;8.630;2023-02-25T03:08:27;3.43;;;2.23;;
17937;SDS011;16051;53.024;8.630;2023-02-25T03:12:32;7.80;;;1.50;;
17937;SDS011;16051;53.024;8.630;2023-02-25T03:16:38;6.50;;;1.60;;
17937;SDS011;16051;53.024;8.630;2023-02-25T03:20:46;3.63;;;1.40;;
17937;SDS011;16051;53.024;8.630;2023-02-25T03:24:52;4.63;;;1.60;;
17937;SDS011;16051;53.024;8.630;2023-02-25T03:28:59;3.40;;;1.17;;
17937;SDS011;16051;53.024;8.630;2023-02-25T03:33:02;6.23;;;1.30;;
17937;SDS011;16051;53.024;8.630;2023-02-25T03:37:14;4.77;;;1.53;;
17937;SDS011;16051;53.024;8.630;2023-02-25T03:50:01;3.63;;;1.20;;
17937;SDS011;16051;53.024;8.630;2023-02-25T03:54:09;3.17;;;1.10;;
17937;SDS011;16051;53.024;8.630;2023-02-25T03:58:13;4.20;;;1.40;;
17937;SDS011;16051;53.024;8.630;2023-02-25T04:02:16;3.57;;;1.67;;
17937;SDS011;16051;53.024;8.630;2023-02-25T04:06:20;4.13;;;1.43;;
17937;SDS011;16051;53.024;8.630;2023-02-25T04:10:24;5.37;;;1.53;;
17937;SDS011;16051;53.024;8.630;2023-02-25T04:14:28;10.13;;;1.63;;
17937;SDS011;16051;53.024;8.630;2023-02-25T04:18:30;4.43;;;1.30;;
17937;SDS011;16051;53.024;8.630;2023-02-25T04:22:32;6.20;;;1.10;;
17937;SDS011;16051;53.024;8.630;2023-02-25T04:26:34;5.70;;;1.27;;
17937;SDS011;16051;53.024;8.630;2023-02-25T04:34:59;4.50;;;1.60;;
17937;SDS011;16051;53.024;8.630;2023-02-25T04:39:03;5.07;;;1.40;;
17937;SDS011;16051;53.024;8.630;2023-02-25T04:43:06;4.53;;;1.60;;
17937;SDS011;16051;53.024;8.630;2023-02-25T04:47:10;2.70;;;1.13;;
17937;SDS011;16051;53.024;8.630;2023-02-25T04:51:15;6.33;;;1.10;;
17937;SDS011;16051;53.024;8.630;2023-02-25T04:55:18;4.33;;;1.63;;
17937;SDS011;16051;53.024;8.630;2023-02-25T04:59:21;4.03;;;1.13;;
17937;SDS011;16051;53.024;8.630;2023-02-25T05:03:27;5.47;;;1.20;;
17937;SDS011;16051;53.024;8.630;2023-02-25T05:07:29;1.93;;;1.07;;
17937;SDS011;16051;53.024;8.630;2023-02-25T05:11:31;2.33;;;0.80;;
17937;SDS011;16051;53.024;8.630;2023-02-25T05:15:33;4.10;;;1.00;;
17937;SDS011;16051;53.024;8.630;2023-02-25T05:19:37;4.50;;;1.53;;
17937;SDS011;16051;53.024;8.630;2023-02-25T05:23:39;2.70;;;1.30;;
17937;SDS011;16051;53.024;8.630;2023-02-25T05:27:42;2.17;;;0.90;;
17937;SDS011;16051;53.024;8.630;2023-02-25T05:31:44;4.50;;;1.37;;
17937;SDS011;16051;53.024;8.630;2023-02-25T05:36:01;4.83;;;1.20;;
17937;SDS011;16051;53.024;8.630;2023-02-25T05:40:06;3.83;;;1.10;;
17937;SDS011;16051;53.024;8.630;2023-02-25T05:44:13;1.83;;;0.80;;
17937;SDS011;16051;53.024;8.630;2023-02-25T05:48:15;2.93;;;1.10;;
17937;SDS011;16051;53.024;8.630;2023-02-25T05:52:18;1.77;;;0.93;;
17937;SDS011;16051;53.024;8.630;2023-02-25T05:56:22;2.33;;;1.07;;
17937;SDS011;16051;53.024;8.630;2023-02-25T06:04:59;3.37;;;1.03;;
17937;SDS011;16051;53.024;8.630;2023-02-25T06:09:03;3.83;;;1.10;;
17937;SDS011;16051;53.024;8.630;2023-02-25T06:13:06;3.10;;;1.10;;
17937;SDS011;16051;53.024;8.630;2023-02-25T06:17:09;6.70;;;1.57;;
17937;SDS011;16051;53.024;8.630;2023-02-25T06:25:34;6.33;;;1.33;;
17937;SDS011;16051;53.024;8.630;2023-02-25T06:29:36;7.23;;;1.30;;
17937;SDS011;16051;53.024;8.630;2023-02-25T06:33:41;2.90;;;1.20;;
17937;SDS011;16051;53.024;8.630;2023-02-25T06:37:43;4.47;;;1.50;;
17937;SDS011;16051;53.024;8.630;2023-02-25T06:41:47;4.30;;;1.00;;
17937;SDS011;16051;53.024;8.630;2023-02-25T06:45:49;3.07;;;1.30;;
17937;SDS011;16051;53.024;8.630;2023-02-25T06:49:51;2.83;;;1.53;;
17937;SDS011;16051;53.024;8.630;2023-02-25T06:53:53;2.97;;;1.00;;
17937;SDS011;16051;53.024;8.630;2023-02-25T07:02:37;3.13;;;0.77;;
17937;SDS011;16051;53.024;8.630;2023-02-25T07:06:39;1.33;;;0.80;;
17937;SDS011;16051;53.024;8.630;2023-02-25T07:10:41;2.13;;;1.30;;
17937;SDS011;16051;53.024;8.630;2023-02-25T07:14:45;2.67;;;1.00;;
17937;SDS011;16051;53.024;8.630;2023-02-25T07:18:47;2.03;;;1.47;;
17937;SDS011;16051;53.024;8.630;2023-02-25T07:22:49;4.97;;;1.37;;
17937;SDS011;16051;53.024;8.630;2023-02-25T07:26:52;2.57;;;1.03;;
17937;SDS011;16051;53.024;8.630;2023-02-25T07:30:55;3.53;;;1.20;;
17937;SDS011;16051;53.024;8.630;2023-02-25T07:35:01;5.17;;;1.73;;
17937;SDS011;16051;53.024;8.630;2023-02-25T07:39:04;5.53;;;1.63;;
17937;SDS011;16051;53.024;8.630;2023-02-25T07:43:08;4.27;;;1.30;;
17937;SDS011;16051;53.024;8.630;2023-02-25T07:47:11;6.23;;;1.37;;
17937;SDS011;16051;53.024;8.630;2023-02-25T07:51:14;4.87;;;1.20;;
17937;SDS011;16051;53.024;8.630;2023-02-25T07:55:19;5.33;;;1.27;;
17937;SDS011;16051;53.024;8.630;2023-02-25T07:59:21;5.80;;;1.50;;
17937;SDS011;16051;53.024;8.630;2023-02-25T08:07:29;3.37;;;1.30;;
17937;SDS011;16051;53.024;8.630;2023-02-25T08:11:32;5.83;;;1.40;;
17937;SDS011;16051;53.024;8.630;2023-02-25T08:19:57;5.93;;;1.57;;
17937;SDS011;16051;53.024;8.630;2023-02-25T08:23:59;8.40;;;1.73;;
17937;SDS011;16051;53.024;8.630;2023-02-25T08:28:01;2.97;;;1.10;;
17937;SDS011;16051;53.024;8.630;2023-02-25T08:32:04;3.50;;;1.23;;
17937;SDS011;16051;53.024;8.630;2023-02-25T08:36:08;4.40;;;1.40;;
17937;SDS011;16051;53.024;8.630;2023-02-25T08:40:16;4.90;;;0.90;;
17937;SDS011;16051;53.024;8.630;2023-02-25T08:44:20;2.67;;;0.90;;
17937;SDS011;16051;53.024;8.630;2023-02-25T08:48:22;2.83;;;0.97;;
17937;SDS011;16051;53.024;8.630;2023-02-25T08:52:26;3.83;;;0.97;;
17937;SDS011;16051;53.024;8.630;2023-02-25T08:56:32;5.63;;;1.57;;
17937;SDS011;16051;53.024;8.630;2023-02-25T09:00:36;2.33;;;0.90;;
17937;SDS011;16051;53.024;8.630;2023-02-25T09:04:39;3.87;;;1.03;;
17937;SDS011;16051;53.024;8.630;2023-02-25T09:08:43;1.83;;;0.70;;
17937;SDS011;16051;53.024;8.630;2023-02-25T09:12:45;1.63;;;1.00;;
17937;SDS011;16051;53.024;8.630;2023-02-25T09:16:48;2.27;;;0.80;;
17937;SDS011;16051;53.024;8.630;2023-02-25T09:25:28;3.27;;;0.53;;
17937;SDS011;16051;53.024;8.630;2023-02-25T09:29:30;2.90;;;0.80;;
17937;SDS011;16051;53.024;8.630;2023-02-25T09:33:41;4.90;;;0.97;;
17937;SDS011;16051;53.024;8.630;2023-02-25T09:37:44;1.50;;;0.70;;
17937;SDS011;16051;53.024;8.630;2023-02-25T09:41:49;0.83;;;0.40;;
17937;SDS011;16051;53.024;8.630;2023-02-25T09:46:05;0.90;;;0.50;;
17937;SDS011;16051;53.024;8.630;2023-02-25T09:50:14;2.00;;;0.60;;
17937;SDS011;16051;53.024;8.630;2023-02-25T09:54:23;0.67;;;0.50;;
17937;SDS011;16051;53.024;8.630;2023-02-25T09:58:35;1.60;;;0.97;;
17937;SDS011;16051;53.024;8.630;2023-02-25T10:02:43;1.23;;;0.67;;
17937;SDS011;16051;53.024;8.630;2023-02-25T10:06:54;1.53;;;0.77;;
17937;SDS011;16051;53.024;8.630;2023-02-25T10:15:47;1.93;;;0.80;;
17937;SDS011;16051;53.024;8.630;2023-02-25T10:20:09;2.70;;;1.00;;
17937;SDS011;16051;53.024;8.630;2023-02-25T10:24:49;3.40;;;1.10;;
17937;SDS011;16051;53.024;8.630;2023-02-25T10:29:10;2.80;;;0.80;;
17937;SDS011;16051;53.024;8.630;2023-02-25T10:33:34;4.80;;;1.17;;
17937;SDS011;16051;53.024;8.630;2023-02-25T10:37:44;1.43;;;0.60;;
17937;SDS011;16051;53.024;8.630;2023-02-25T10:41:46;2.87;;;0.80;;
17937;SDS011;16051;53.024;8.630;2023-02-25T10:45:50;1.73;;;0.73;;
17937;SDS011;16051;53.024;8.630;2023-02-25T10:50:22;1.40;;;0.80;;
17937;SDS011;16051;53.024;8.630;2023-02-25T10:54:26;1.53;;;0.50;;
17937;SDS011;16051;53.024;8.630;2023-02-25T10:58:30;1.87;;;0.70;;
17937;SDS011;16051;53.024;8.630;2023-02-25T11:02:39;2.43;;;0.60;;
17937;SDS011;16051;53.024;8.630;2023-02-25T11:06:45;7.10;;;1.20;;
17937;SDS011;16051;53.024;8.630;2023-02-25T11:10:51;2.50;;;0.70;;
17937;SDS011;16051;53.024;8.630;2023-02-25T11:15:12;1.70;;;0.67;;
17937;SDS011;16051;53.024;8.630;2023-02-25T11:19:27;2.90;;;0.80;;
17937;SDS011;16051;53.024;8.630;2023-02-25T11:23:36;1.80;;;0.80;;
17937;SDS011;16051;53.024;8.630;2023-02-25T11:27:47;3.10;;;0.90;;
17937;SDS011;16051;53.024;8.630;2023-02-25T11:31:58;4.53;;;0.77;;
17937;SDS011;16051;53.024;8.630;2023-02-25T11:36:09;1.90;;;0.60;;
17937;SDS011;16051;53.024;8.630;2023-02-25T11:40:20;2.27;;;0.60;;
17937;SDS011;16051;53.024;8.630;2023-02-25T11:44:40;2.40;;;0.70;;
17937;SDS011;16051;53.024;8.630;2023-02-25T11:48:45;2.63;;;0.80;;
17937;SDS011;16051;53.024;8.630;2023-02-25T11:52:53;2.43;;;1.10;;
17937;SDS011;16051;53.024;8.630;2023-02-25T11:57:07;3.23;;;0.80;;
17937;SDS011;16051;53.024;8.630;2023-02-25T12:01:15;2.43;;;0.70;;
17937;SDS011;16051;53.024;8.630;2023-02-25T12:05:33;1.50;;;1.00;;
17937;SDS011;16051;53.024;8.630;2023-02-25T12:10:00;1.33;;;1.10;;
17937;SDS011;16051;53.024;8.630;2023-02-25T12:14:39;1.10;;;0.80;;
17937;SDS011;16051;53.024;8.630;2023-02-25T12:24:40;0.87;;;0.60;;
17937;SDS011;16051;53.024;8.630;2023-02-25T12:34:10;4.17;;;1.10;;
17937;SDS011;16051;53.024;8.630;2023-02-25T12:38:54;4.97;;;0.90;;
17937;SDS011;16051;53.024;8.630;2023-02-25T12:43:22;2.50;;;0.90;;
17937;SDS011;16051;53.024;8.630;2023-02-25T12:47:49;2.77;;;0.90;;
17937;SDS011;16051;53.024;8.630;2023-02-25T12:52:19;5.90;;;1.60;;
17937;SDS011;16051;53.024;8.630;2023-02-25T12:56:40;3.80;;;1.10;;
17937;SDS011;16051;53.024;8.630;2023-02-25T13:06:13;1.70;;;0.97;;
17937;SDS011;16051;53.024;8.630;2023-02-25T13:11:05;1.77;;;0.70;;
17937;SDS011;16051;53.024;8.630;2023-02-25T13:15:24;4.07;;;1.10;;
17937;SDS011;16051;53.024;8.630;2023-02-25T13:24:27;1.70;;;0.80;;
17937;SDS011;16051;53.024;8.630;2023-02-25T13:28:59;2.10;;;1.10;;
17937;SDS011;16051;53.024;8.630;2023-02-25T13:38:18;2.00;;;0.80;;
17937;SDS011;16051;53.024;8.630;2023-02-25T13:42:44;2.80;;;1.10;;
17937;SDS011;16051;53.024;8.630;2023-02-25T14:05:37;1.73;;;0.90;;
17937;SDS011;16051;53.024;8.630;2023-02-25T14:10:15;1.50;;;1.00;;
17937;SDS011;16051;53.024;8.630;2023-02-25T14:14:42;3.27;;;0.90;;
17937;SDS011;16051;53.024;8.630;2023-02-25T14:19:24;1.97;;;1.13;;
17937;SDS011;16051;53.024;8.630;2023-02-25T14:23:42;2.00;;;0.93;;
17937;SDS011;16051;53.024;8.630;2023-02-25T14:27:54;2.93;;;1.30;;
17937;SDS011;16051;53.024;8.630;2023-02-25T14:37:07;2.33;;;1.10;;
17937;SDS011;16051;53.024;8.630;2023-02-25T14:41:26;2.77;;;0.97;;
17937;SDS011;16051;53.024;8.630;2023-02-25T14:45:42;1.00;;;0.90;;
17937;SDS011;16051;53.024;8.630;2023-02-25T14:49:53;2.13;;;1.27;;
17937;SDS011;16051;53.024;8.630;2023-02-25T14:54:26;3.23;;;1.20;;
17937;SDS011;16051;53.024;8.630;2023-02-25T15:08:47;4.00;;;1.40;;
17937;SDS011;16051;53.024;8.630;2023-02-25T15:13:49;2.40;;;1.03;;
17937;SDS011;16051;53.024;8.630;2023-02-25T15:18:39;3.57;;;1.33;;
17937;SDS011;16051;53.024;8.630;2023-02-25T15:23:19;2.60;;;1.20;;
17937;SDS011;16051;53.024;8.630;2023-02-25T15:36:38;1.83;;;1.13;;
17937;SDS011;16051;53.024;8.630;2023-02-25T15:40:45;2.50;;;1.30;;
17937;SDS011;16051;53.024;8.630;2023-02-25T15:44:51;2.27;;;1.10;;
17937;SDS011;16051;53.024;8.630;2023-02-25T15:49:36;1.93;;;1.00;;
17937;SDS011;16051;53.024;8.630;2023-02-25T15:54:04;1.60;;;1.10;;
17937;SDS011;16051;53.024;8.630;2023-02-25T16:02:54;1.67;;;0.90;;
17937;SDS011;16051;53.024;8.630;2023-02-25T16:07:00;1.60;;;0.80;;
17937;SDS011;16051;53.024;8.630;2023-02-25T16:11:13;4.00;;;2.23;;
17937;SDS011;16051;53.024;8.630;2023-02-25T16:15:26;5.20;;;3.30;;
17937;SDS011;16051;53.024;8.630;2023-02-25T16:19:36;36.53;;;17.27;;
17937;SDS011;16051;53.024;8.630;2023-02-25T16:23:42;48.73;;;17.10;;
17937;SDS011;16051;53.024;8.630;2023-02-25T16:27:48;37.60;;;14.83;;
17937;SDS011;16051;53.024;8.630;2023-02-25T16:32:15;109.13;;;33.53;;
17937;SDS011;16051;53.024;8.630;2023-02-25T16:36:32;151.00;;;49.43;;
17937;SDS011;16051;53.024;8.630;2023-02-25T16:40:47;18.07;;;8.77;;
17937;SDS011;16051;53.024;8.630;2023-02-25T16:44:54;22.63;;;14.60;;
17937;SDS011;16051;53.024;8.630;2023-02-25T16:49:01;7.03;;;4.77;;
17937;SDS011;16051;53.024;8.630;2023-02-25T16:53:09;6.03;;;4.70;;
17937;SDS011;16051;53.024;8.630;2023-02-25T16:57:22;2.30;;;1.80;;
17937;SDS011;16051;53.024;8.630;2023-02-25T17:01:26;3.50;;;2.90;;
17937;SDS011;16051;53.024;8.630;2023-02-25T17:05:31;5.77;;;4.13;;
17937;SDS011;16051;53.024;8.630;2023-02-25T17:09:43;8.77;;;6.03;;
17937;SDS011;16051;53.024;8.630;2023-02-25T17:13:50;5.47;;;3.90;;
17937;SDS011;16051;53.024;8.630;2023-02-25T17:22:22;2.77;;;1.30;;
17937;SDS011;16051;53.024;8.630;2023-02-25T17:26:26;3.67;;;1.87;;
17937;SDS011;16051;53.024;8.630;2023-02-25T17:30:36;1.77;;;1.67;;
17937;SDS011;16051;53.024;8.630;2023-02-25T17:34:43;4.13;;;2.63;;
17937;SDS011;16051;53.024;8.630;2023-02-25T17:38:48;4.93;;;2.00;;
17937;SDS011;16051;53.024;8.630;2023-02-25T17:47:23;5.20;;;3.37;;
17937;SDS011;16051;53.024;8.630;2023-02-25T17:51:38;3.70;;;2.73;;
17937;SDS011;16051;53.024;8.630;2023-02-25T17:55:40;3.27;;;2.33;;
17937;SDS011;16051;53.024;8.630;2023-02-25T17:59:46;4.67;;;2.90;;
17937;SDS011;16051;53.024;8.630;2023-02-25T18:03:53;2.97;;;1.70;;
17937;SDS011;16051;53.024;8.630;2023-02-25T18:08:09;3.13;;;1.80;;
17937;SDS011;16051;53.024;8.630;2023-02-25T18:12:21;4.90;;;2.63;;
17937;SDS011;16051;53.024;8.630;2023-02-25T18:16:38;7.87;;;3.60;;
17937;SDS011;16051;53.024;8.630;2023-02-25T18:20:45;4.50;;;3.43;;
17937;SDS011;16051;53.024;8.630;2023-02-25T18:25:00;4.73;;;2.70;;
17937;SDS011;16051;53.024;8.630;2023-02-25T18:29:07;7.07;;;3.90;;
17937;SDS011;16051;53.024;8.630;2023-02-25T18:33:19;5.23;;;4.70;;
17937;SDS011;16051;53.024;8.630;2023-02-25T18:37:36;7.17;;;4.17;;
17937;SDS011;16051;53.024;8.630;2023-02-25T18:41:40;7.40;;;3.87;;
17937;SDS011;16051;53.024;8.630;2023-02-25T18:45:43;11.83;;;7.03;;
17937;SDS011;16051;53.024;8.630;2023-02-25T18:49:46;5.10;;;2.90;;
17937;SDS011;16051;53.024;8.630;2023-02-25T18:53:49;3.50;;;2.00;;
17937;SDS011;16051;53.024;8.630;2023-02-25T18:57:52;2.67;;;2.13;;
17937;SDS011;16051;53.024;8.630;2023-02-25T19:01:55;4.00;;;2.03;;
17937;SDS011;16051;53.024;8.630;2023-02-25T19:05:57;5.10;;;1.70;;
17937;SDS011;16051;53.024;8.630;2023-02-25T19:10:02;12.33;;;8.93;;
17937;SDS011;16051;53.024;8.630;2023-02-25T19:14:07;4.70;;;2.70;;
17937;SDS011;16051;53.024;8.630;2023-02-25T19:18:26;11.33;;;10.10;;
17937;SDS011;16051;53.024;8.630;2023-02-25T19:22:31;6.33;;;5.67;;
17937;SDS011;16051;53.024;8.630;2023-02-25T19:26:43;6.03;;;4.80;;
17937;SDS011;16051;53.024;8.630;2023-02-25T19:30:47;6.70;;;5.93;;
17937;SDS011;16051;53.024;8.630;2023-02-25T19:34:49;7.33;;;5.40;;
17937;SDS011;16051;53.024;8.630;2023-02-25T19:43:19;5.67;;;4.97;;
17937;SDS011;16051;53.024;8.630;2023-02-25T19:47:25;4.67;;;4.20;;
17937;SDS011;16051;53.024;8.630;2023-02-25T19:51:37;5.37;;;4.33;;
17937;SDS011;16051;53.024;8.630;2023-02-25T19:55:41;5.63;;;3.97;;
17937;SDS011;16051;53.024;8.630;2023-02-25T19:59:52;8.50;;;6.13;;
17937;SDS011;16051;53.024;8.630;2023-02-25T20:03:55;4.30;;;3.87;;
17937;SDS011;16051;53.024;8.630;2023-02-25T20:08:02;4.87;;;3.60;;
17937;SDS011;16051;53.024;8.630;2023-02-25T20:12:05;18.23;;;9.80;;
17937;SDS011;16051;53.024;8.630;2023-02-25T20:16:09;21.33;;;10.73;;
17937;SDS011;16051;53.024;8.630;2023-02-25T20:20:19;17.43;;;9.83;;
17937;SDS011;16051;53.024;8.630;2023-02-25T20:24:29;14.17;;;6.93;;
17937;SDS011;16051;53.024;8.630;2023-02-25T20:28:32;7.63;;;5.13;;
17937;SDS011;16051;53.024;8.630;2023-02-25T20:36:46;5.80;;;3.70;;
17937;SDS011;16051;53.024;8.630;2023-02-25T20:40:54;4.53;;;3.10;;
17937;SDS011;16051;53.024;8.630;2023-02-25T20:44:57;2.27;;;1.83;;
17937;SDS011;16051;53.024;8.630;2023-02-25T20:49:02;3.40;;;2.77;;
17937;SDS011;16051;53.024;8.630;2023-02-25T20:53:13;3.20;;;1.73;;
17937;SDS011;16051;53.024;8.630;2023-02-25T20:57:18;1.43;;;1.13;;
17937;SDS011;16051;53.024;8.630;2023-02-25T21:05:34;3.40;;;1.60;;
17937;SDS011;16051;53.024;8.630;2023-02-25T21:09:44;3.33;;;2.20;;
17937;SDS011;16051;53.024;8.630;2023-02-25T21:13:59;5.07;;;2.53;;
17937;SDS011;16051;53.024;8.630;2023-02-25T21:18:02;2.63;;;1.20;;
17937;SDS011;16051;53.024;8.630;2023-02-25T21:22:06;5.07;;;2.30;;
17937;SDS011;16051;53.024;8.630;2023-02-25T21:30:38;3.83;;;1.70;;
17937;SDS011;16051;53.024;8.630;2023-02-25T21:34:40;3.63;;;2.30;;
17937;SDS011;16051;53.024;8.630;2023-02-25T21:43:28;2.63;;;1.77;;
17937;SDS011;16051;53.024;8.630;2023-02-25T21:47:30;2.20;;;1.73;;
17937;SDS011;16051;53.024;8.630;2023-02-25T21:55:47;5.83;;;2.07;;
17937;SDS011;16051;53.024;8.630;2023-02-25T22:00:02;2.33;;;1.47;;
17937;SDS011;16051;53.024;8.630;2023-02-25T22:04:06;1.20;;;0.97;;
17937;SDS011;16051;53.024;8.630;2023-02-25T22:08:10;2.83;;;1.27;;
17937;SDS011;16051;53.024;8.630;2023-02-25T22:12:14;3.10;;;1.57;;
17937;SDS011;16051;53.024;8.630;2023-02-25T22:16:16;4.07;;;1.67;;
17937;SDS011;16051;53.024;8.630;2023-02-25T22:20:22;2.97;;;1.20;;
17937;SDS011;16051;53.024;8.630;2023-02-25T22:24:24;2.33;;;1.10;;
17937;SDS011;16051;53.024;8.630;2023-02-25T22:28:27;2.10;;;1.13;;
17937;SDS011;16051;53.024;8.630;2023-02-25T22:32:37;1.13;;;1.00;;
17937;SDS011;16051;53.024;8.630;2023-02-25T22:36:39;1.77;;;1.20;;
17937;SDS011;16051;53.024;8.630;2023-02-25T22:40:49;2.27;;;1.30;;
17937;SDS011;16051;53.024;8.630;2023-02-25T22:44:52;1.90;;;1.20;;
17937;SDS011;16051;53.024;8.630;2023-02-25T22:48:55;3.60;;;1.30;;
17937;SDS011;16051;53.024;8.630;2023-02-25T22:52:58;3.33;;;0.90;;
17937;SDS011;16051;53.024;8.630;2023-02-25T22:57:01;1.67;;;1.00;;
17937;SDS011;16051;53.024;8.630;2023-02-25T23:01:04;1.50;;;1.10;;
17937;SDS011;16051;53.024;8.630;2023-02-25T23:05:07;1.20;;;1.00;;
17937;SDS011;16051;53.024;8.630;2023-02-25T23:09:10;1.80;;;1.37;;
17937;SDS011;16051;53.024;8.630;2023-02-25T23:13:13;3.00;;;1.37;;
17937;SDS011;16051;53.024;8.630;2023-02-25T23:17:35;3.77;;;1.60;;
17937;SDS011;16051;53.024;8.630;2023-02-25T23:21:38;3.97;;;1.23;;
17937;SDS011;16051;53.024;8.630;2023-02-25T23:25:40;4.10;;;1.53;;
17937;SDS011;16051;53.024;8.630;2023-02-25T23:33:54;1.27;;;1.17;;
17937;SDS011;16051;53.024;8.630;2023-02-25T23:37:58;3.13;;;1.60;;
17937;SDS011;16051;53.024;8.630;2023-02-25T23:42:14;1.10;;;0.93;;
17937;SDS011;16051;53.024;8.630;2023-02-25T23:46:16;3.13;;;1.20;;
17937;SDS011;16051;53.024;8.630;2023-02-25T23:54:49;2.57;;;1.17;;
17937;SDS011;16051;53.024;8.630;2023-02-25T23:58:52;2.00;;;1.27;;
